createdAt,value
2023-02-12T00:00:31.324Z,8.21
2023-02-12T00:01:31.471Z,8.21
2023-02-12T00:02:31.847Z,8.21
2023-02-12T00:03:32.153Z,8.15
2023-02-12T00:04:32.314Z,8.17
2023-02-12T00:05:32.658Z,8.18
2023-02-12T00:06:32.876Z,8.18
2023-02-12T00:07:33.202Z,8.15
2023-02-12T00:08:33.510Z,8.17
2023-02-12T00:09:33.699Z,8.14
2023-02-12T00:10:34.121Z,8.12
2023-02-12T00:11:34.346Z,8.12
2023-02-12T00:12:34.504Z,8.12
2023-02-12T00:13:34.943Z,8.14
2023-02-12T00:14:35.157Z,8.15
2023-02-12T00:15:35.565Z,8.12
2023-02-12T00:16:35.765Z,8.10
2023-02-12T00:17:36.013Z,8.08
2023-02-12T00:18:36.531Z,8.08
2023-02-12T00:19:36.647Z,8.08
2023-02-12T00:20:36.813Z,8.08
2023-02-12T00:21:37.075Z,8.10
2023-02-12T00:22:37.338Z,8.08
2023-02-12T00:23:37.635Z,8.11
2023-02-12T00:24:38.020Z,8.14
2023-02-12T00:25:38.314Z,8.15
2023-02-12T00:26:38.520Z,8.15
2023-02-12T00:27:38.835Z,8.15
2023-02-12T00:28:39.184Z,8.17
2023-02-12T00:29:39.584Z,8.15
2023-02-12T00:30:39.806Z,8.12
2023-02-12T00:31:40.150Z,8.12
2023-02-12T00:32:40.331Z,8.10
2023-02-12T00:33:40.641Z,8.14
2023-02-12T00:34:41.004Z,8.14
2023-02-12T00:35:41.148Z,8.17
2023-02-12T00:36:41.485Z,8.14
2023-02-12T00:37:41.855Z,8.12
2023-02-12T00:38:42.135Z,8.11
2023-02-12T00:39:42.477Z,8.11
2023-02-12T00:40:42.621Z,8.08
2023-02-12T00:41:42.955Z,8.08
2023-02-12T00:42:43.253Z,8.08
2023-02-12T00:43:43.619Z,8.08
2023-02-12T00:44:43.805Z,8.10
2023-02-12T00:45:44.126Z,8.11
2023-02-12T00:46:44.490Z,8.12
2023-02-12T00:47:44.775Z,8.11
2023-02-12T00:48:45.022Z,8.10
2023-02-12T00:49:46.208Z,8.11
2023-02-12T00:50:45.650Z,8.12
2023-02-12T00:51:46.022Z,8.14
2023-02-12T00:52:46.239Z,8.11
2023-02-12T00:53:46.576Z,8.10
2023-02-12T00:54:46.850Z,8.07
2023-02-12T00:55:47.230Z,8.03
2023-02-12T00:56:47.545Z,8.04
2023-02-12T00:57:47.828Z,8.08
2023-02-12T00:58:48.941Z,8.03
2023-02-12T00:59:48.420Z,8.04
2023-02-12T01:00:48.615Z,8.03
2023-02-12T01:01:49.034Z,8.02
2023-02-12T01:02:49.238Z,8.03
2023-02-12T01:03:49.528Z,8.03
2023-02-12T01:04:49.775Z,8.02
2023-02-12T01:05:50.101Z,8.03
2023-02-12T01:06:50.464Z,8.02
2023-02-12T01:07:50.786Z,8.03
2023-02-12T01:08:51.043Z,8.03
2023-02-12T01:09:51.396Z,8.00
2023-02-12T01:10:51.577Z,8.00
2023-02-12T01:11:51.909Z,7.99
2023-02-12T01:12:52.201Z,7.96
2023-02-12T01:13:52.490Z,7.97
2023-02-12T01:14:52.781Z,7.99
2023-02-12T01:15:54.016Z,8.00
2023-02-12T01:16:53.444Z,8.03
2023-02-12T01:17:53.668Z,8.02
2023-02-12T01:18:55.923Z,8.02
2023-02-12T01:19:54.345Z,8.04
2023-02-12T01:20:54.561Z,8.08
2023-02-12T01:21:55.000Z,8.08
2023-02-12T01:22:55.330Z,8.02
2023-02-12T01:23:55.649Z,8.03
2023-02-12T01:24:55.959Z,8.02
2023-02-12T01:25:56.555Z,8.03
2023-02-12T01:26:56.539Z,8.07
2023-02-12T01:27:56.940Z,8.03
2023-02-12T01:28:57.172Z,8.04
2023-02-12T01:29:57.632Z,8.04
2023-02-12T01:30:57.882Z,8.08
2023-02-12T01:31:58.304Z,8.07
2023-02-12T01:32:58.835Z,8.02
2023-02-12T01:33:58.654Z,8.03
2023-02-12T01:34:58.854Z,8.07
2023-02-12T01:35:59.263Z,8.08
2023-02-12T01:36:59.460Z,8.07
2023-02-12T01:37:59.833Z,8.10
2023-02-12T01:39:00.139Z,8.10
2023-02-12T01:40:00.832Z,8.08
2023-02-12T01:41:00.728Z,8.04
2023-02-12T01:42:01.026Z,8.02
2023-02-12T01:43:01.303Z,8.00
2023-02-12T01:44:01.672Z,8.02
2023-02-12T01:45:02.059Z,7.96
2023-02-12T01:46:02.242Z,7.99
2023-02-12T01:47:02.593Z,8.00
2023-02-12T01:48:02.940Z,8.00
2023-02-12T01:49:03.208Z,8.00
2023-02-12T01:50:03.600Z,8.00
2023-02-12T01:51:03.812Z,8.00
2023-02-12T01:52:04.191Z,8.00
2023-02-12T01:53:04.412Z,8.00
2023-02-12T01:54:04.673Z,7.99
2023-02-12T01:55:04.952Z,8.00
2023-02-12T01:56:05.298Z,7.99
2023-02-12T01:57:05.511Z,8.02
2023-02-12T01:58:05.800Z,8.00
2023-02-12T01:59:06.046Z,8.02
2023-02-12T02:00:06.485Z,8.00
2023-02-12T02:01:06.658Z,8.03
2023-02-12T02:02:07.114Z,8.02
2023-02-12T02:03:07.393Z,7.99
2023-02-12T02:04:07.570Z,8.00
2023-02-12T02:05:08.017Z,8.00
2023-02-12T02:06:08.184Z,7.99
2023-02-12T02:07:08.343Z,7.99
2023-02-12T02:08:08.679Z,7.97
2023-02-12T02:09:09.022Z,7.96
2023-02-12T02:10:09.404Z,7.99
2023-02-12T02:11:09.647Z,7.99
2023-02-12T02:12:10.055Z,7.99
2023-02-12T02:13:10.205Z,7.99
2023-02-12T02:14:10.524Z,7.99
2023-02-12T02:15:10.808Z,7.97
2023-02-12T02:16:11.179Z,7.96
2023-02-12T02:17:11.414Z,7.94
2023-02-12T02:18:12.544Z,7.92
2023-02-12T02:19:11.885Z,7.93
2023-02-12T02:20:12.193Z,7.89
2023-02-12T02:21:12.553Z,7.90
2023-02-12T02:22:12.745Z,7.89
2023-02-12T02:23:13.016Z,7.89
2023-02-12T02:24:13.425Z,7.87
2023-02-12T02:25:13.622Z,7.85
2023-02-12T02:26:13.929Z,7.85
2023-02-12T02:27:14.311Z,7.84
2023-02-12T02:28:15.357Z,7.84
2023-02-12T02:29:14.891Z,7.84
2023-02-12T02:30:15.300Z,7.85
2023-02-12T02:31:16.563Z,7.85
2023-02-12T02:32:15.862Z,7.90
2023-02-12T02:33:16.120Z,7.87
2023-02-12T02:34:16.492Z,7.87
2023-02-12T02:35:16.814Z,7.87
2023-02-12T02:36:17.082Z,7.87
2023-02-12T02:37:17.368Z,7.85
2023-02-12T02:38:17.755Z,7.84
2023-02-12T02:39:18.113Z,7.85
2023-02-12T02:40:18.314Z,7.85
2023-02-12T02:41:18.659Z,7.85
2023-02-12T02:42:18.965Z,7.85
2023-02-12T02:43:19.280Z,7.85
2023-02-12T02:44:19.688Z,7.82
2023-02-12T02:45:19.848Z,7.85
2023-02-12T02:46:20.223Z,7.85
2023-02-12T02:47:20.426Z,7.87
2023-02-12T02:48:20.733Z,7.82
2023-02-12T02:49:21.098Z,7.81
2023-02-12T02:50:21.419Z,7.85
2023-02-12T02:51:21.769Z,7.81
2023-02-12T02:52:22.924Z,7.84
2023-02-12T02:53:22.366Z,7.84
2023-02-12T02:54:22.733Z,7.87
2023-02-12T02:55:23.032Z,7.85
2023-02-12T02:56:23.358Z,7.85
2023-02-12T02:57:23.629Z,7.81
2023-02-12T02:58:23.837Z,7.78
2023-02-12T02:59:24.114Z,7.81
2023-02-12T03:00:24.430Z,7.81
2023-02-12T03:01:24.750Z,7.81
2023-02-12T03:02:24.991Z,7.81
2023-02-12T03:03:25.256Z,7.81
2023-02-12T03:04:25.446Z,7.82
2023-02-12T03:05:25.796Z,7.81
2023-02-12T03:06:26.120Z,7.79
2023-02-12T03:07:26.435Z,7.78
2023-02-12T03:08:26.792Z,7.77
2023-02-12T03:09:27.006Z,7.77
2023-02-12T03:10:27.369Z,7.79
2023-02-12T03:11:27.667Z,7.81
2023-02-12T03:12:28.044Z,7.81
2023-02-12T03:13:28.312Z,7.82
2023-02-12T03:14:28.482Z,7.85
2023-02-12T03:15:28.839Z,7.81
2023-02-12T03:16:29.251Z,7.81
2023-02-12T03:17:29.441Z,7.78
2023-02-12T03:18:29.822Z,7.79
2023-02-12T03:19:30.064Z,7.78
2023-02-12T03:20:30.410Z,7.79
2023-02-12T03:21:30.636Z,7.81
2023-02-12T03:22:30.972Z,7.78
2023-02-12T03:23:31.290Z,7.79
2023-02-12T03:24:31.666Z,7.78
2023-02-12T03:25:31.873Z,7.81
2023-02-12T03:26:32.185Z,7.81
2023-02-12T03:27:32.506Z,7.81
2023-02-12T03:28:32.906Z,7.77
2023-02-12T03:29:33.068Z,7.77
2023-02-12T03:30:33.429Z,7.77
2023-02-12T03:31:33.792Z,7.77
2023-02-12T03:32:33.959Z,7.75
2023-02-12T03:33:34.242Z,7.77
2023-02-12T03:34:34.621Z,7.79
2023-02-12T03:35:34.931Z,7.78
2023-02-12T03:36:35.320Z,7.77
2023-02-12T03:37:35.502Z,7.77
2023-02-12T03:38:35.776Z,7.77
2023-02-12T03:39:36.077Z,7.77
2023-02-12T03:40:36.537Z,7.79
2023-02-12T03:41:37.177Z,7.79
2023-02-12T03:42:37.052Z,7.79
2023-02-12T03:43:37.359Z,7.79
2023-02-12T03:44:38.538Z,7.81
2023-02-12T03:45:38.011Z,7.81
2023-02-12T03:46:38.337Z,7.79
2023-02-12T03:47:38.618Z,7.81
2023-02-12T03:48:38.871Z,7.79
2023-02-12T03:49:39.076Z,7.81
2023-02-12T03:50:39.393Z,7.82
2023-02-12T03:51:39.788Z,7.79
2023-02-12T03:52:40.020Z,7.79
2023-02-12T03:53:40.315Z,7.79
2023-02-12T03:54:40.690Z,7.77
2023-02-12T03:55:40.908Z,7.78
2023-02-12T03:56:41.285Z,7.78
2023-02-12T03:57:41.477Z,7.79
2023-02-12T03:58:41.862Z,7.75
2023-02-12T03:59:42.028Z,7.81
2023-02-12T04:00:42.395Z,7.78
2023-02-12T04:01:42.802Z,7.75
2023-02-12T04:02:43.065Z,7.77
2023-02-12T04:03:43.398Z,7.74
2023-02-12T04:04:43.633Z,7.75
2023-02-12T04:05:43.884Z,7.77
2023-02-12T04:06:44.180Z,7.77
2023-02-12T04:07:44.420Z,7.77
2023-02-12T04:08:45.192Z,7.78
2023-02-12T04:09:45.122Z,7.79
2023-02-12T04:10:45.427Z,7.79
2023-02-12T04:11:46.708Z,7.81
2023-02-12T04:12:46.203Z,7.78
2023-02-12T04:13:46.373Z,7.78
2023-02-12T04:14:46.725Z,7.75
2023-02-12T04:15:46.900Z,7.75
2023-02-12T04:16:47.319Z,7.74
2023-02-12T04:17:47.507Z,7.75
2023-02-12T04:18:47.773Z,7.77
2023-02-12T04:19:48.095Z,7.74
2023-02-12T04:20:48.408Z,7.77
2023-02-12T04:21:48.733Z,7.75
2023-02-12T04:22:49.072Z,7.77
2023-02-12T04:23:49.491Z,7.77
2023-02-12T04:24:49.724Z,7.75
2023-02-12T04:25:50.004Z,7.77
2023-02-12T04:26:50.358Z,7.79
2023-02-12T04:27:50.684Z,7.79
2023-02-12T04:28:51.051Z,7.79
2023-02-12T04:29:51.232Z,7.75
2023-02-12T04:30:51.748Z,7.77
2023-02-12T04:31:52.084Z,7.74
2023-02-12T04:32:52.179Z,7.69
2023-02-12T04:33:52.514Z,7.74
2023-02-12T04:34:52.835Z,7.71
2023-02-12T04:35:53.221Z,7.66
2023-02-12T04:36:53.533Z,7.69
2023-02-12T04:37:53.726Z,7.63
2023-02-12T04:38:54.046Z,7.60
2023-02-12T04:39:54.410Z,7.56
2023-02-12T04:40:54.642Z,7.47
2023-02-12T04:41:54.835Z,7.40
2023-02-12T04:42:55.178Z,7.40
2023-02-12T04:43:55.339Z,7.37
2023-02-12T04:44:55.747Z,7.34
2023-02-12T04:45:56.275Z,7.35
2023-02-12T04:46:56.287Z,7.35
2023-02-12T04:47:56.623Z,7.40
2023-02-12T04:48:56.945Z,7.38
2023-02-12T04:49:58.142Z,7.42
2023-02-12T04:50:57.532Z,7.42
2023-02-12T04:51:58.220Z,7.50
2023-02-12T04:52:57.962Z,7.52
2023-02-12T04:53:58.307Z,7.52
2023-02-12T04:54:58.690Z,7.56
2023-02-12T04:55:58.872Z,7.55
2023-02-12T04:56:59.235Z,7.52
2023-02-12T04:57:59.478Z,7.52
2023-02-12T04:58:59.868Z,7.50
2023-02-12T05:00:00.107Z,7.50
2023-02-12T05:01:00.485Z,7.52
2023-02-12T05:02:00.668Z,7.56
2023-02-12T05:03:00.994Z,7.53
2023-02-12T05:04:01.267Z,7.53
2023-02-12T05:05:01.726Z,7.55
2023-02-12T05:06:01.894Z,7.58
2023-02-12T05:07:02.288Z,7.58
2023-02-12T05:08:02.577Z,7.58
2023-02-12T05:09:02.956Z,7.56
2023-02-12T05:10:03.161Z,7.58
2023-02-12T05:11:03.515Z,7.56
2023-02-12T05:12:03.878Z,7.52
2023-02-12T05:13:04.143Z,7.50
2023-02-12T05:14:04.307Z,7.52
2023-02-12T05:15:04.647Z,7.52
2023-02-12T05:16:05.029Z,7.50
2023-02-12T05:17:05.216Z,7.45
2023-02-12T05:18:05.955Z,7.42
2023-02-12T05:19:05.856Z,7.41
2023-02-12T05:20:06.167Z,7.38
2023-02-12T05:21:06.528Z,7.38
2023-02-12T05:22:06.796Z,7.37
2023-02-12T05:23:07.161Z,7.37
2023-02-12T05:24:07.502Z,7.34
2023-02-12T05:25:07.798Z,7.37
2023-02-12T05:26:08.120Z,7.37
2023-02-12T05:27:08.446Z,7.35
2023-02-12T05:28:08.746Z,7.37
2023-02-12T05:29:09.030Z,7.38
2023-02-12T05:30:09.341Z,7.40
2023-02-12T05:31:10.688Z,7.42
2023-02-12T05:32:10.065Z,7.45
2023-02-12T05:33:10.242Z,7.40
2023-02-12T05:34:10.549Z,7.42
2023-02-12T05:35:10.915Z,7.47
2023-02-12T05:36:11.098Z,7.45
2023-02-12T05:37:11.598Z,7.42
2023-02-12T05:38:11.753Z,7.40
2023-02-12T05:39:12.104Z,7.42
2023-02-12T05:40:12.415Z,7.45
2023-02-12T05:41:12.615Z,7.41
2023-02-12T05:42:12.917Z,7.40
2023-02-12T05:43:13.234Z,7.42
2023-02-12T05:44:13.547Z,7.40
2023-02-12T05:45:13.948Z,7.41
2023-02-12T05:46:14.256Z,7.44
2023-02-12T05:47:14.482Z,7.41
2023-02-12T05:48:15.611Z,7.40
2023-02-12T05:49:15.067Z,7.37
2023-02-12T05:50:15.395Z,7.35
2023-02-12T05:51:15.732Z,7.34
2023-02-12T05:52:16.086Z,7.35
2023-02-12T05:53:16.332Z,7.38
2023-02-12T05:54:16.521Z,7.38
2023-02-12T05:55:16.845Z,7.38
2023-02-12T05:56:17.158Z,7.42
2023-02-12T05:57:17.513Z,7.44
2023-02-12T05:58:17.734Z,7.44
2023-02-12T05:59:18.076Z,7.42
2023-02-12T06:00:18.346Z,7.40
2023-02-12T06:01:18.723Z,7.41
2023-02-12T06:02:19.042Z,7.47
2023-02-12T06:03:19.638Z,7.47
2023-02-12T06:04:19.742Z,7.45
2023-02-12T06:05:19.970Z,7.49
2023-02-12T06:06:20.248Z,7.47
2023-02-12T06:07:20.611Z,7.49
2023-02-12T06:08:20.912Z,7.47
2023-02-12T06:09:21.183Z,7.44
2023-02-12T06:10:21.416Z,7.42
2023-02-12T06:11:21.750Z,7.41
2023-02-12T06:12:22.116Z,7.42
2023-02-12T06:13:22.336Z,7.42
2023-02-12T06:14:22.624Z,7.44
2023-02-12T06:15:22.972Z,7.44
2023-02-12T06:16:23.288Z,7.41
2023-02-12T06:17:23.658Z,7.40
2023-02-12T06:18:23.883Z,7.41
2023-02-12T06:19:24.275Z,7.42
2023-02-12T06:20:24.494Z,7.42
2023-02-12T06:21:24.790Z,7.44
2023-02-12T06:22:25.072Z,7.41
2023-02-12T06:23:25.309Z,7.44
2023-02-12T06:24:25.583Z,7.38
2023-02-12T06:25:25.805Z,7.37
2023-02-12T06:26:26.028Z,7.37
2023-02-12T06:27:26.419Z,7.35
2023-02-12T06:28:26.686Z,7.37
2023-02-12T06:29:26.955Z,7.35
2023-02-12T06:30:27.175Z,7.35
2023-02-12T06:31:27.738Z,7.32
2023-02-12T06:32:27.705Z,7.32
2023-02-12T06:33:27.992Z,7.32
2023-02-12T06:34:28.272Z,7.32
2023-02-12T06:35:28.538Z,7.34
2023-02-12T06:36:28.862Z,7.35
2023-02-12T06:37:29.201Z,7.34
2023-02-12T06:38:29.387Z,7.31
2023-02-12T06:39:29.678Z,7.34
2023-02-12T06:40:29.926Z,7.35
2023-02-12T06:41:30.187Z,7.42
2023-02-12T06:42:32.456Z,7.42
2023-02-12T06:43:30.682Z,7.41
2023-02-12T06:44:30.964Z,7.41
2023-02-12T06:45:31.224Z,7.44
2023-02-12T06:46:31.531Z,7.44
2023-02-12T06:47:31.778Z,7.42
2023-02-12T06:48:32.037Z,7.37
2023-02-12T06:49:32.282Z,7.38
2023-02-12T06:50:32.577Z,7.38
2023-02-12T06:51:32.849Z,7.32
2023-02-12T06:52:33.062Z,7.29
2023-02-12T06:53:33.481Z,7.24
2023-02-12T06:54:33.720Z,7.27
2023-02-12T06:55:33.991Z,7.27
2023-02-12T06:56:34.262Z,7.26
2023-02-12T06:57:34.537Z,7.32
2023-02-12T06:58:34.793Z,7.34
2023-02-12T06:59:35.054Z,7.27
2023-02-12T07:00:35.440Z,7.35
2023-02-12T07:01:35.710Z,7.38
2023-02-12T07:02:38.889Z,7.42
2023-02-12T07:03:36.234Z,7.42
2023-02-12T07:04:36.461Z,7.38
2023-02-12T07:05:36.731Z,7.38
2023-02-12T07:06:36.994Z,7.38
2023-02-12T07:07:37.255Z,7.37
2023-02-12T07:08:37.716Z,7.34
2023-02-12T07:09:37.795Z,7.35
2023-02-12T07:10:38.088Z,7.29
2023-02-12T07:11:38.831Z,7.26
2023-02-12T07:12:38.595Z,7.27
2023-02-12T07:13:38.951Z,7.27
2023-02-12T07:14:39.141Z,7.27
2023-02-12T07:15:39.439Z,7.34
2023-02-12T07:16:39.717Z,7.38
2023-02-12T07:17:39.998Z,7.42
2023-02-12T07:18:40.295Z,7.44
2023-02-12T07:19:40.606Z,7.47
2023-02-12T07:20:40.802Z,7.45
2023-02-12T07:21:41.061Z,7.45
2023-02-12T07:22:41.294Z,7.42
2023-02-12T07:23:41.571Z,7.42
2023-02-12T07:24:41.872Z,7.42
2023-02-12T07:25:42.158Z,7.44
2023-02-12T07:26:42.403Z,7.44
2023-02-12T07:27:42.648Z,7.45
2023-02-12T07:28:42.937Z,7.45
2023-02-12T07:29:43.273Z,7.45
2023-02-12T07:30:43.528Z,7.45
2023-02-12T07:31:43.840Z,7.44
2023-02-12T07:32:44.016Z,7.44
2023-02-12T07:33:44.287Z,7.44
2023-02-12T07:34:44.567Z,7.44
2023-02-12T07:35:44.867Z,7.44
2023-02-12T07:36:45.079Z,7.41
2023-02-12T07:37:45.354Z,7.47
2023-02-12T07:38:45.631Z,7.45
2023-02-12T07:39:45.919Z,7.49
2023-02-12T07:40:46.198Z,7.50
2023-02-12T07:41:46.447Z,7.52
2023-02-12T07:42:46.739Z,7.55
2023-02-12T07:43:47.028Z,7.55
2023-02-12T07:44:47.341Z,7.53
2023-02-12T07:45:47.635Z,7.55
2023-02-12T07:46:48.781Z,7.56
2023-02-12T07:47:48.169Z,7.56
2023-02-12T07:48:48.452Z,7.56
2023-02-12T07:49:48.731Z,7.58
2023-02-12T07:50:49.024Z,7.59
2023-02-12T07:51:49.350Z,7.60
2023-02-12T07:52:49.549Z,7.66
2023-02-12T07:53:49.831Z,7.62
2023-02-12T07:54:50.148Z,7.63
2023-02-12T07:55:50.407Z,7.62
2023-02-12T07:56:50.636Z,7.60
2023-02-12T07:57:50.898Z,7.59
2023-02-12T07:58:51.179Z,7.59
2023-02-12T07:59:51.581Z,7.59
2023-02-12T08:00:51.704Z,7.58
2023-02-12T08:01:51.998Z,7.58
2023-02-12T08:02:52.251Z,7.56
2023-02-12T08:03:52.580Z,7.58
2023-02-12T08:04:53.621Z,7.58
2023-02-12T08:05:53.026Z,7.55
2023-02-12T08:06:53.312Z,7.53
2023-02-12T08:07:53.580Z,7.55
2023-02-12T08:08:53.839Z,7.52
2023-02-12T08:09:54.143Z,7.53
2023-02-12T08:10:54.354Z,7.50
2023-02-12T08:11:54.723Z,7.49
2023-02-12T08:12:54.959Z,7.52
2023-02-12T08:13:55.222Z,7.52
2023-02-12T08:14:55.466Z,7.52
2023-02-12T08:15:56.093Z,7.55
2023-02-12T08:16:56.141Z,7.53
2023-02-12T08:17:56.272Z,7.56
2023-02-12T08:19:02.396Z,7.59
2023-02-12T08:19:57.862Z,7.62
2023-02-12T08:20:57.121Z,7.60
2023-02-12T08:21:57.451Z,7.60
2023-02-12T08:22:57.721Z,7.63
2023-02-12T08:23:57.988Z,7.66
2023-02-12T08:24:58.260Z,7.66
2023-02-12T08:25:58.496Z,7.62
2023-02-12T08:26:58.751Z,7.62
2023-02-12T08:27:59.084Z,7.63
2023-02-12T08:28:59.310Z,7.63
2023-02-12T08:29:59.620Z,7.59
2023-02-12T08:30:59.899Z,7.58
2023-02-12T08:32:00.353Z,7.55
2023-02-12T08:33:00.469Z,7.56
2023-02-12T08:34:00.762Z,7.53
2023-02-12T08:35:01.017Z,7.53
2023-02-12T08:36:01.780Z,7.53
2023-02-12T08:37:01.679Z,7.55
2023-02-12T08:38:01.965Z,7.52
2023-02-12T08:39:02.193Z,7.47
2023-02-12T08:40:02.463Z,7.44
2023-02-12T08:41:02.839Z,7.45
2023-02-12T08:42:03.033Z,7.42
2023-02-12T08:43:03.306Z,7.45
2023-02-12T08:44:03.606Z,7.49
2023-02-12T08:45:03.864Z,7.53
2023-02-12T08:46:04.151Z,7.53
2023-02-12T08:47:04.453Z,7.58
2023-02-12T08:48:04.738Z,7.55
2023-02-12T08:49:04.998Z,7.56
2023-02-12T08:50:05.283Z,7.60
2023-02-12T08:51:05.525Z,7.59
2023-02-12T08:52:05.853Z,7.62
2023-02-12T08:53:06.061Z,7.62
2023-02-12T08:54:06.330Z,7.63
2023-02-12T08:55:06.574Z,7.67
2023-02-12T08:56:06.869Z,7.67
2023-02-12T08:57:07.132Z,7.66
2023-02-12T08:58:07.448Z,7.69
2023-02-12T08:59:07.660Z,7.69
2023-02-12T09:00:07.950Z,7.71
2023-02-12T09:01:08.228Z,7.74
2023-02-12T09:02:08.583Z,7.72
2023-02-12T09:03:08.758Z,7.71
2023-02-12T09:04:09.063Z,7.67
2023-02-12T09:05:09.278Z,7.69
2023-02-12T09:06:09.567Z,7.75
2023-02-12T09:07:11.020Z,7.79
2023-02-12T09:08:10.356Z,7.78
2023-02-12T09:09:10.447Z,7.78
2023-02-12T09:10:10.727Z,7.79
2023-02-12T09:11:10.966Z,7.78
2023-02-12T09:12:11.282Z,7.81
2023-02-12T09:13:11.482Z,7.84
2023-02-12T09:14:11.780Z,7.81
2023-02-12T09:15:12.062Z,7.77
2023-02-12T09:16:12.376Z,7.69
2023-02-12T09:17:12.670Z,7.69
2023-02-12T09:18:12.929Z,7.71
2023-02-12T09:19:13.194Z,7.71
2023-02-12T09:20:13.452Z,7.77
2023-02-12T09:21:13.723Z,7.79
2023-02-12T09:22:14.020Z,7.79
2023-02-12T09:23:14.286Z,7.84
2023-02-12T09:24:14.644Z,7.87
2023-02-12T09:25:14.892Z,7.90
2023-02-12T09:26:15.268Z,7.90
2023-02-12T09:27:15.490Z,7.92
2023-02-12T09:28:15.776Z,7.94
2023-02-12T09:29:16.045Z,7.97
2023-02-12T09:30:17.230Z,7.97
2023-02-12T09:31:16.826Z,8.03
2023-02-12T09:32:16.934Z,8.04
2023-02-12T09:33:17.262Z,8.10
2023-02-12T09:34:17.482Z,8.15
2023-02-12T09:35:17.742Z,8.17
2023-02-12T09:36:17.988Z,8.15
2023-02-12T09:37:18.235Z,8.14
2023-02-12T09:38:18.540Z,8.15
2023-02-12T09:39:18.830Z,8.18
2023-02-12T09:40:19.114Z,8.14
2023-02-12T09:41:19.442Z,8.10
2023-02-12T09:42:19.670Z,8.08
2023-02-12T09:43:19.941Z,8.04
2023-02-12T09:44:20.234Z,8.04
2023-02-12T09:45:20.541Z,8.10
2023-02-12T09:46:21.742Z,8.14
2023-02-12T09:47:21.040Z,8.14
2023-02-12T09:48:22.447Z,8.18
2023-02-12T09:49:21.534Z,8.15
2023-02-12T09:50:21.773Z,8.11
2023-02-12T09:51:22.043Z,8.10
2023-02-12T09:52:22.356Z,8.11
2023-02-12T09:53:22.839Z,8.14
2023-02-12T09:54:22.918Z,8.17
2023-02-12T09:55:23.188Z,8.22
2023-02-12T09:56:23.486Z,8.29
2023-02-12T09:57:24.725Z,8.30
2023-02-12T09:58:24.061Z,8.33
2023-02-12T09:59:24.310Z,8.35
2023-02-12T10:00:24.626Z,8.37
2023-02-12T10:01:24.880Z,8.39
2023-02-12T10:02:25.183Z,8.42
2023-02-12T10:03:25.424Z,8.45
2023-02-12T10:04:25.780Z,8.45
2023-02-12T10:05:26.136Z,8.47
2023-02-12T10:06:26.284Z,8.44
2023-02-12T10:07:27.142Z,8.40
2023-02-12T10:08:26.877Z,8.40
2023-02-12T10:09:27.109Z,8.44
2023-02-12T10:10:27.425Z,8.44
2023-02-12T10:11:27.680Z,8.47
2023-02-12T10:12:27.952Z,8.54
2023-02-12T10:13:28.223Z,8.57
2023-02-12T10:14:28.480Z,8.57
2023-02-12T10:15:28.845Z,8.57
2023-02-12T10:16:29.043Z,8.58
2023-02-12T10:17:29.305Z,8.57
2023-02-12T10:18:29.602Z,8.58
2023-02-12T10:19:29.866Z,8.63
2023-02-12T10:20:30.161Z,8.65
2023-02-12T10:21:30.451Z,8.65
2023-02-12T10:22:30.712Z,8.66
2023-02-12T10:23:30.965Z,8.69
2023-02-12T10:24:31.885Z,8.72
2023-02-12T10:25:31.570Z,8.73
2023-02-12T10:26:31.895Z,8.79
2023-02-12T10:27:32.094Z,8.79
2023-02-12T10:28:32.455Z,8.81
2023-02-12T10:29:32.678Z,8.88
2023-02-12T10:30:32.991Z,8.90
2023-02-12T10:31:33.352Z,8.90
2023-02-12T10:32:33.568Z,8.90
2023-02-12T10:33:35.496Z,8.91
2023-02-12T10:34:34.164Z,8.93
2023-02-12T10:35:34.377Z,8.97
2023-02-12T10:36:34.646Z,9.02
2023-02-12T10:37:34.970Z,9.04
2023-02-12T10:38:35.235Z,9.05
2023-02-12T10:39:35.485Z,9.06
2023-02-12T10:40:35.736Z,9.10
2023-02-12T10:41:36.189Z,9.15
2023-02-12T10:42:36.694Z,9.16
2023-02-12T10:43:36.518Z,9.20
2023-02-12T10:44:36.796Z,9.21
2023-02-12T10:45:37.071Z,9.23
2023-02-12T10:46:37.359Z,9.23
2023-02-12T10:47:37.693Z,9.25
2023-02-12T10:48:37.941Z,9.30
2023-02-12T10:49:38.191Z,9.32
2023-02-12T10:50:38.443Z,9.34
2023-02-12T10:51:38.693Z,9.42
2023-02-12T10:52:39.035Z,9.43
2023-02-12T10:53:39.270Z,9.48
2023-02-12T10:54:39.574Z,9.50
2023-02-12T10:55:39.837Z,9.46
2023-02-12T10:56:40.094Z,9.43
2023-02-12T10:57:40.368Z,9.43
2023-02-12T10:58:40.619Z,9.46
2023-02-12T10:59:40.871Z,9.45
2023-02-12T11:00:41.162Z,9.46
2023-02-12T11:01:41.457Z,9.45
2023-02-12T11:02:41.752Z,9.43
2023-02-12T11:03:42.042Z,9.45
2023-02-12T11:04:42.573Z,9.46
2023-02-12T11:05:42.587Z,9.50
2023-02-12T11:06:42.881Z,9.56
2023-02-12T11:07:43.187Z,9.58
2023-02-12T11:08:43.464Z,9.64
2023-02-12T11:09:43.866Z,9.68
2023-02-12T11:10:44.156Z,9.73
2023-02-12T11:11:44.982Z,9.79
2023-02-12T11:12:44.719Z,9.85
2023-02-12T11:13:45.337Z,9.88
2023-02-12T11:14:45.339Z,9.93
2023-02-12T11:15:45.647Z,9.97
2023-02-12T11:16:46.153Z,10.00
2023-02-12T11:17:46.198Z,10.03
2023-02-12T11:18:46.522Z,10.07
2023-02-12T11:19:46.759Z,10.03
2023-02-12T11:20:47.061Z,10.06
2023-02-12T11:21:47.357Z,10.09
2023-02-12T11:22:47.635Z,10.07
2023-02-12T11:23:47.907Z,10.04
2023-02-12T11:24:48.209Z,10.04
2023-02-12T11:25:48.492Z,10.01
2023-02-12T11:26:48.773Z,10.09
2023-02-12T11:27:49.092Z,10.07
2023-02-12T11:28:49.651Z,10.10
2023-02-12T11:29:49.635Z,10.17
2023-02-12T11:30:50.067Z,10.22
2023-02-12T11:31:50.590Z,10.25
2023-02-12T11:32:50.469Z,10.32
2023-02-12T11:33:50.762Z,10.32
2023-02-12T11:34:51.061Z,10.34
2023-02-12T11:35:51.356Z,10.37
2023-02-12T11:36:51.715Z,10.34
2023-02-12T11:37:51.927Z,10.36
2023-02-12T11:38:52.230Z,10.33
2023-02-12T11:39:52.496Z,10.36
2023-02-12T11:40:52.785Z,10.39
2023-02-12T11:41:53.094Z,10.43
2023-02-12T11:42:53.412Z,10.53
2023-02-12T11:43:53.691Z,10.52
2023-02-12T11:44:54.024Z,10.51
2023-02-12T11:45:54.332Z,10.47
2023-02-12T11:46:54.663Z,10.39
2023-02-12T11:47:54.981Z,10.34
2023-02-12T11:48:55.236Z,10.36
2023-02-12T11:49:55.343Z,10.42
2023-02-12T11:50:55.779Z,10.47
2023-02-12T11:51:55.901Z,10.47
2023-02-12T11:52:57.117Z,10.47
2023-02-12T11:53:56.530Z,10.52
2023-02-12T11:54:56.778Z,10.47
2023-02-12T11:55:57.056Z,10.42
2023-02-12T11:56:57.327Z,10.36
2023-02-12T11:57:57.676Z,10.37
2023-02-12T11:58:58.041Z,10.37
2023-02-12T11:59:58.361Z,10.39
2023-02-12T12:00:58.598Z,10.34
2023-02-12T12:01:58.962Z,10.36
2023-02-12T12:02:59.239Z,10.46
2023-02-12T12:03:59.552Z,10.51
2023-02-12T12:04:59.691Z,10.55
2023-02-12T12:05:59.990Z,10.55
2023-02-12T12:07:00.306Z,10.44
2023-02-12T12:08:00.507Z,10.42
2023-02-12T12:09:00.819Z,10.32
2023-02-12T12:10:01.167Z,10.26
2023-02-12T12:11:01.665Z,10.18
2023-02-12T12:12:01.658Z,10.10
2023-02-12T12:13:01.970Z,10.07
2023-02-12T12:14:02.236Z,10.09
2023-02-12T12:15:02.654Z,10.19
2023-02-12T12:16:02.847Z,10.25
2023-02-12T12:17:03.137Z,10.25
2023-02-12T12:18:03.446Z,10.22
2023-02-12T12:19:03.703Z,10.30
2023-02-12T12:20:03.928Z,10.34
2023-02-12T12:21:04.279Z,10.36
2023-02-12T12:22:04.509Z,10.40
2023-02-12T12:23:04.856Z,10.42
2023-02-12T12:24:05.161Z,10.51
2023-02-12T12:25:06.464Z,10.53
2023-02-12T12:26:05.794Z,10.59
2023-02-12T12:27:06.053Z,10.65
2023-02-12T12:28:06.378Z,10.74
2023-02-12T12:29:06.751Z,10.78
2023-02-12T12:30:07.000Z,10.89
2023-02-12T12:31:07.356Z,10.98
2023-02-12T12:32:07.675Z,11.07
2023-02-12T12:33:07.875Z,11.11
2023-02-12T12:34:08.157Z,11.13
2023-02-12T12:35:08.438Z,11.07
2023-02-12T12:36:08.737Z,10.96
2023-02-12T12:37:09.011Z,10.96
2023-02-12T12:38:09.316Z,10.96
2023-02-12T12:39:09.611Z,10.99
2023-02-12T12:40:09.890Z,11.03
2023-02-12T12:41:10.219Z,11.01
2023-02-12T12:42:10.482Z,11.01
2023-02-12T12:43:10.773Z,11.07
2023-02-12T12:44:11.029Z,11.11
2023-02-12T12:45:11.300Z,11.10
2023-02-12T12:46:11.603Z,11.14
2023-02-12T12:47:11.924Z,11.13
2023-02-12T12:48:12.142Z,11.11
2023-02-12T12:49:12.415Z,11.09
2023-02-12T12:50:12.697Z,11.11
2023-02-12T12:51:13.041Z,11.14
2023-02-12T12:52:13.268Z,11.17
2023-02-12T12:53:13.764Z,10.99
2023-02-12T12:54:13.859Z,10.98
2023-02-12T12:55:14.183Z,10.99
2023-02-12T12:56:14.478Z,11.03
2023-02-12T12:57:14.774Z,11.03
2023-02-12T12:58:15.032Z,11.10
2023-02-12T12:59:15.311Z,11.01
2023-02-12T13:00:15.603Z,10.98
2023-02-12T13:01:15.946Z,10.81
2023-02-12T13:02:16.272Z,10.74
2023-02-12T13:03:16.928Z,10.77
2023-02-12T13:04:16.831Z,10.84
2023-02-12T13:05:17.073Z,10.83
2023-02-12T13:06:17.304Z,10.86
2023-02-12T13:07:17.665Z,10.96
2023-02-12T13:08:17.910Z,11.06
2023-02-12T13:09:18.208Z,11.24
2023-02-12T13:10:18.460Z,11.31
2023-02-12T13:11:18.749Z,11.35
2023-02-12T13:12:19.066Z,11.47
2023-02-12T13:13:19.336Z,11.54
2023-02-12T13:14:19.607Z,11.75
2023-02-12T13:15:19.886Z,11.67
2023-02-12T13:16:20.160Z,11.70
2023-02-12T13:17:20.474Z,11.77
2023-02-12T13:18:20.803Z,11.86